Portada
METAR-TAF:

METAR-TAF

Aeroports :

Zanjan, Iran

latitud: 36-41N, longitud: 048-29E, altitud: 1663 m

Observació

L'informe es va fer fa 1 hora i 5 minuts, a les 06:00 UTC
Vent 6 kt del Est/Sud-Est
Temperatura 7°C
Humitat 42%
Pressió 1016 hPa
Visibilitat 10 km o més
Núvols disperses a una alçada de 4000 ft
Cel cobert a una alçada de 7000 ft

METAR: OITZ 280600Z 12006KT 9999 SCT040 OVC070 07/M05 Q1015 A2999

Hora: 10:35 (07:05 UTC)


TAF: manca

Observacions i pronòstics meteorològics de més de 4000 aeroports (METAR i TAF).

Les estacions disponibles són els punts grocs i vermells al mapa.

Posi el ratolí al punt desitjat per veure el nom de l'estació.

Feu clic per veure les observacions i els pronòstics meteorològics.

Per canviar el mapa: feu clic els botons verds amb una creu de color negre per apropar; al botó verd amb un guió per allunyar la imatge; o en les fletxes verdes per a mapes adjacents.


METAR-TAF: